createdAt,value
2019-01-29T11:56:18.278Z,0.60
2019-01-29T15:25:13.333Z,28.23
2019-01-29T15:35:18.393Z,26.00
2019-01-29T15:45:25.635Z,23.40
2019-01-29T15:55:33.063Z,21.90
2019-01-29T16:05:43.930Z,20.23
2019-01-29T16:15:49.046Z,22.73
2019-01-29T16:25:54.055Z,23.83
2019-01-29T16:40:31.052Z,21.33
2019-01-29T16:51:42.222Z,29.17
2019-01-29T17:01:44.043Z,29.13
2019-01-29T17:11:49.078Z,31.13
2019-01-29T17:21:54.082Z,32.17
2019-01-29T17:31:58.968Z,35.50
2019-01-29T17:42:03.724Z,34.10
2019-01-29T17:52:08.474Z,35.87
2019-01-29T18:02:13.370Z,38.03
2019-01-29T18:12:18.161Z,36.20
2019-01-29T18:22:24.845Z,37.77
2019-01-29T18:32:29.774Z,33.63
2019-01-29T18:42:34.800Z,20.53
2019-01-29T18:52:39.683Z,20.90
2019-01-29T19:02:44.940Z,11.53
2019-01-29T19:12:51.019Z,8.67
2019-01-29T19:22:55.967Z,9.77
2019-01-29T19:33:02.991Z,8.57
2019-01-29T19:43:08.125Z,10.90
2019-01-29T19:53:14.364Z,14.33
2019-01-29T20:03:19.291Z,15.40
2019-01-29T20:13:24.360Z,15.70
2019-01-29T20:23:29.326Z,12.30
2019-01-29T20:33:34.513Z,11.63
2019-01-29T20:43:39.527Z,11.93
2019-01-29T20:53:45.838Z,11.63
2019-01-29T21:03:52.072Z,12.03
2019-01-29T21:13:57.081Z,9.33
2019-01-29T21:24:01.933Z,11.23
2019-01-29T21:34:08.047Z,12.97
2019-01-29T21:44:12.794Z,11.57
2019-01-29T21:54:17.542Z,16.27
2019-01-29T22:04:22.452Z,16.10
2019-01-29T22:14:27.242Z,13.10
2019-01-29T22:24:32.046Z,14.43
2019-01-29T22:34:36.854Z,12.77
2019-01-29T22:44:41.668Z,12.40
2019-01-29T22:54:46.407Z,12.30
2019-01-29T23:04:51.419Z,11.67
2019-01-29T23:14:56.189Z,14.10
2019-01-29T23:25:00.935Z,13.53
2019-01-29T23:35:06.882Z,15.10
2019-01-29T23:45:14.205Z,12.20
2019-01-29T23:55:18.951Z,16.47
